Time;durP1;ratioP1;P1;durP2;ratioP2;P2;SDS_P1;SDS_P2;PMS_P1;PMS_P2;Temp;Humidity;BMP_temperature;BMP_pressure;BME280_temperature;BME280_humidity;BME280_pressure;Samples;Min_cycle;Max_cycle;Signal;HPM_P1;HPM_P2
2022/08/28 00:00:38;;;;;;;4.43;1.80;;;;;;;23.60;100.00;96197.84;5025381;28;20125;-50
2022/08/28 00:03:09;;;;;;;3.08;1.85;;;;;;;23.06;100.00;96195.19;5025438;28;20523;-50
2022/08/28 00:05:38;;;;;;;3.63;2.28;;;;;;;23.40;100.00;96199.03;5022084;28;20073;-54
2022/08/28 00:08:08;;;;;;;4.47;2.15;;;;;;;23.10;100.00;96196.38;5028770;28;20081;-50
2022/08/28 00:10:38;;;;;;;4.97;2.03;;;;;;;23.48;100.00;96203.22;5024160;28;20081;-46
2022/08/28 00:13:08;;;;;;;3.00;2.00;;;;;;;23.43;100.00;96195.88;5025122;28;20084;-47
2022/08/28 00:15:38;;;;;;;5.03;2.65;;;;;;;23.46;100.00;96195.38;5027969;28;20080;-49
2022/08/28 00:18:08;;;;;;;3.40;2.45;;;;;;;23.14;100.00;96192.16;5028419;28;20105;-48
2022/08/28 00:20:38;;;;;;;3.95;2.20;;;;;;;23.51;100.00;96192.00;5021728;28;20069;-49
2022/08/28 00:23:06;;;;;;;4.97;2.40;;;;;;;23.66;100.00;96186.16;5023182;28;20084;-50
2022/08/28 00:25:35;;;;;;;3.20;2.40;;;;;;;23.56;100.00;96192.13;5020400;28;20085;-50
2022/08/28 00:28:06;;;;;;;3.03;2.38;;;;;;;23.65;100.00;96188.03;5022271;28;20084;-51
2022/08/28 00:30:38;;;;;;;5.15;2.47;;;;;;;23.72;100.00;96179.06;5027794;28;20099;-52
2022/08/28 00:33:10;;;;;;;3.20;2.30;;;;;;;22.94;100.00;96194.34;5025834;28;20115;-52
2022/08/28 00:35:39;;;;;;;6.25;2.75;;;;;;;23.09;100.00;96188.53;5024034;28;20069;-51
2022/08/28 00:38:08;;;;;;;3.50;2.22;;;;;;;23.28;100.00;96187.41;5027825;28;20073;-51
2022/08/28 00:40:38;;;;;;;3.92;2.20;;;;;;;23.05;100.00;96195.41;5026324;28;20767;-50
2022/08/28 00:43:08;;;;;;;3.45;2.67;;;;;;;23.27;100.00;96190.34;5028631;28;20056;-49
2022/08/28 00:45:37;;;;;;;4.10;2.60;;;;;;;23.56;100.00;96186.72;5028919;28;20073;-48
2022/08/28 00:48:08;;;;;;;3.72;2.70;;;;;;;23.04;100.00;96188.41;5024938;28;20080;-51
2022/08/28 00:53:20;;;;;;;3.25;2.53;;;;;;;22.84;100.00;96189.47;5023165;28;20084;-51
2022/08/28 00:55:54;;;;;;;4.78;2.75;;;;;;;23.30;100.00;96187.19;5022519;28;20077;-47
2022/08/28 00:58:22;;;;;;;4.78;3.22;;;;;;;23.15;100.00;96190.28;5025413;28;23249;-47
2022/08/28 01:00:50;;;;;;;5.43;3.03;;;;;;;23.28;100.00;96182.03;5025822;28;20088;-49
2022/08/28 01:03:20;;;;;;;4.53;3.60;;;;;;;23.04;100.00;96194.59;5019455;28;20108;-49
2022/08/28 01:05:53;;;;;;;4.32;3.42;;;;;;;22.60;100.00;96191.25;5024160;28;20081;-47
2022/08/28 01:08:22;;;;;;;4.85;3.70;;;;;;;22.96;100.00;96194.94;5025711;28;20081;-47
2022/08/28 01:10:54;;;;;;;4.90;3.95;;;;;;;22.93;100.00;96184.63;5028051;28;20084;-49
2022/08/28 01:13:23;;;;;;;4.70;3.80;;;;;;;23.22;100.00;96186.44;5024216;28;20532;-51
2022/08/28 01:15:52;;;;;;;7.50;4.03;;;;;;;22.90;100.00;96182.38;5024235;28;20176;-52
2022/08/28 01:18:22;;;;;;;4.55;3.90;;;;;;;22.81;100.00;96189.13;5028713;28;20081;-53
2022/08/28 01:20:54;;;;;;;4.85;3.90;;;;;;;22.98;100.00;96185.56;5023843;28;20115;-48
2022/08/28 01:23:38;;;;;;;5.07;3.97;;;;;;;22.62;100.00;96191.03;5024881;28;20081;-54
2022/08/28 01:26:08;;;;;;;6.13;4.13;;;;;;;22.64;100.00;96194.31;5026998;28;20546;-52
2022/08/28 01:28:39;;;;;;;7.13;4.32;;;;;;;22.66;100.00;96184.97;5028092;28;20080;-49
2022/08/28 01:31:09;;;;;;;5.75;3.90;;;;;;;22.72;100.00;96192.13;5028239;28;20073;-51
2022/08/28 01:33:37;;;;;;;;;;;;;;;22.82;100.00;96191.59;5027411;28;20073;-48
2022/08/28 01:36:11;;;;;;;6.68;4.10;;;;;;;22.32;100.00;96185.63;5015630;28;19953;-55
2022/08/28 01:38:41;;;;;;;7.60;4.63;;;;;;;22.02;100.00;96192.56;5027176;28;20085;-48
2022/08/28 01:41:10;;;;;;;;;;;;;;;22.74;100.00;96191.88;5026809;28;20121;-52
2022/08/28 01:43:39;;;;;;;6.85;4.45;;;;;;;22.91;100.00;96182.13;5024573;28;19964;-49
2022/08/28 01:46:08;;;;;;;5.40;3.97;;;;;;;22.84;100.00;96194.03;5028442;28;20085;-51
2022/08/28 01:48:41;;;;;;;6.65;4.20;;;;;;;22.55;100.00;96193.81;5020625;28;20081;-51
2022/08/28 01:51:10;;;;;;;5.15;4.50;;;;;;;22.67;100.00;96196.53;5019066;28;20089;-49
2022/08/28 01:53:41;;;;;;;5.13;4.43;;;;;;;23.01;100.00;96194.25;5019933;28;20081;-48
2022/08/28 01:56:15;;;;;;;5.13;3.95;;;;;;;23.04;100.00;96191.09;5025694;28;20081;-50
2022/08/28 01:58:44;;;;;;;5.82;4.72;;;;;;;22.93;100.00;96193.53;5025923;28;20077;-48
2022/08/28 02:01:14;;;;;;;7.70;4.00;;;;;;;22.58;100.00;96196.03;5027333;28;20650;-51
2022/08/28 02:03:42;;;;;;;5.35;4.00;;;;;;;23.00;100.00;96198.00;5023676;28;20077;-46
2022/08/28 02:06:12;;;;;;;6.80;4.10;;;;;;;23.13;100.00;96198.59;5029212;28;20515;-51
2022/08/28 02:08:42;;;;;;;6.32;3.70;;;;;;;23.29;100.00;96191.72;5028604;28;20483;-50
2022/08/28 02:11:11;;;;;;;4.88;4.13;;;;;;;23.45;100.00;96188.38;5031286;28;20088;-51
2022/08/28 02:13:40;;;;;;;5.13;3.60;;;;;;;23.49;100.00;96183.34;5021477;28;20093;-53
2022/08/28 02:16:09;;;;;;;5.22;3.70;;;;;;;23.25;100.00;96187.03;5029613;28;20076;-49
2022/08/28 02:18:38;;;;;;;4.80;4.10;;;;;;;23.37;100.00;96194.09;5025207;28;20084;-47
2022/08/28 02:21:08;;;;;;;7.13;3.70;;;;;;;23.85;100.00;96176.13;5028699;28;20088;-51
2022/08/28 02:23:38;;;;;;;5.22;4.20;;;;;;;22.96;100.00;96190.38;5030916;28;20100;-50
2022/08/28 02:26:09;;;;;;;5.47;4.15;;;;;;;23.82;100.00;96184.66;5024477;28;20086;-50
2022/08/28 02:28:37;;;;;;;5.55;4.15;;;;;;;23.76;100.00;96182.91;5031203;28;20085;-52
2022/08/28 02:31:08;;;;;;;5.10;4.05;;;;;;;23.92;100.00;96184.91;5023050;28;20077;-51
2022/08/28 02:33:37;;;;;;;5.20;4.07;;;;;;;23.96;100.00;96183.38;5030558;28;20072;-52
2022/08/28 02:36:07;;;;;;;7.40;4.55;;;;;;;24.03;100.00;96178.69;5023327;28;20092;-49
2022/08/28 02:38:36;;;;;;;7.25;4.70;;;;;;;24.29;100.00;96181.91;5024712;28;20077;-54
2022/08/28 02:41:05;;;;;;;7.20;5.20;;;;;;;24.15;100.00;96178.66;5019341;28;20080;-55
2022/08/28 02:43:35;;;;;;;7.53;4.90;;;;;;;24.03;100.00;96175.16;5030520;28;20077;-48
2022/08/28 02:46:04;;;;;;;6.22;4.35;;;;;;;24.24;100.00;96174.53;5026507;28;20555;-49
2022/08/28 02:48:34;;;;;;;6.70;4.57;;;;;;;24.13;100.00;96178.91;5023965;28;20085;-49
2022/08/28 02:51:05;;;;;;;6.57;4.78;;;;;;;24.28;100.00;96178.38;5021124;28;21200;-48
2022/08/28 02:53:33;;;;;;;7.28;4.78;;;;;;;24.18;100.00;96175.47;5027745;28;20077;-48
2022/08/28 02:56:02;;;;;;;7.10;5.07;;;;;;;24.22;100.00;96170.44;5031179;28;20088;-51
2022/08/28 02:58:31;;;;;;;5.75;4.85;;;;;;;23.81;100.00;96185.72;5028952;28;20093;-47
2022/08/28 03:01:01;;;;;;;7.07;5.05;;;;;;;23.52;100.00;96182.88;5026515;28;20566;-52
2022/08/28 03:03:31;;;;;;;7.70;5.40;;;;;;;23.91;100.00;96184.06;5022657;28;20104;-54
2022/08/28 03:06:00;;;;;;;7.07;5.33;;;;;;;23.07;100.00;96182.56;5028435;28;20092;-48
2022/08/28 03:08:30;;;;;;;10.90;6.10;;;;;;;23.66;100.00;96183.47;5027649;28;20496;-51
2022/08/28 03:10:59;;;;;;;10.75;5.78;;;;;;;23.44;100.00;96180.53;5024115;28;20519;-48
2022/08/28 03:13:28;;;;;;;6.65;5.50;;;;;;;23.55;100.00;96177.03;5024897;28;20448;-46
2022/08/28 03:15:58;;;;;;;7.65;5.80;;;;;;;23.32;100.00;96177.81;5029341;28;20522;-50
2022/08/28 03:18:29;;;;;;;8.77;5.95;;;;;;;23.63;100.00;96175.84;5030528;28;20707;-46
2022/08/28 03:20:57;;;;;;;7.57;5.40;;;;;;;23.55;100.00;96173.50;5026830;28;20096;-48
2022/08/28 03:23:27;;;;;;;8.30;6.00;;;;;;;23.92;100.00;96174.13;5026631;28;20476;-47
2022/08/28 03:25:57;;;;;;;;;;;;;;;24.10;100.00;96178.56;5025109;28;20092;-50
2022/08/28 03:28:25;;;;;;;7.80;5.72;;;;;;;24.22;100.00;96170.44;5028115;28;19972;-49
2022/08/28 03:30:54;;;;;;;9.95;6.38;;;;;;;24.24;100.00;96168.34;5025946;28;20822;-48
2022/08/28 03:33:22;;;;;;;7.05;5.93;;;;;;;23.50;100.00;96187.66;5023361;28;20085;-47
2022/08/28 03:35:52;;;;;;;8.88;6.70;;;;;;;23.98;100.00;96172.34;5022436;28;20077;-48
2022/08/28 03:38:21;;;;;;;8.88;6.68;;;;;;;24.02;100.00;96179.75;5028603;28;20076;-48
2022/08/28 03:40:52;;;;;;;9.20;6.75;;;;;;;23.61;100.00;96189.56;5028161;28;20084;-50
2022/08/28 03:43:22;;;;;;;8.43;6.53;;;;;;;23.68;100.00;96181.41;5022520;28;20587;-49
2022/08/28 03:45:52;;;;;;;11.90;6.88;;;;;;;24.25;100.00;96176.16;5030381;28;20654;-52
2022/08/28 03:48:22;;;;;;;11.43;6.68;;;;;;;23.73;100.00;96183.38;5027420;28;20081;-47
2022/08/28 03:50:53;;;;;;;8.93;6.53;;;;;;;24.14;100.00;96180.53;5020994;28;20530;-48
2022/08/28 03:53:24;;;;;;;10.43;6.68;;;;;;;24.38;100.00;96180.47;5029547;28;20500;-50
2022/08/28 03:55:53;;;;;;;10.90;6.70;;;;;;;24.22;100.00;96187.41;5028542;28;20081;-54
2022/08/28 03:58:22;;;;;;;9.18;6.75;;;;;;;24.48;100.00;96188.00;5025071;28;20081;-52
2022/08/28 04:00:50;;;;;;;9.25;7.05;;;;;;;23.95;100.00;96199.75;5020379;28;20088;-48
2022/08/28 04:03:19;;;;;;;12.90;7.07;;;;;;;24.36;100.00;96191.50;5029315;28;20049;-48
2022/08/28 04:05:47;;;;;;;11.10;7.22;;;;;;;24.43;100.00;96191.38;5025356;28;20084;-51
2022/08/28 04:08:19;;;;;;;9.85;7.57;;;;;;;23.83;100.00;96197.88;5025164;28;20089;-49
2022/08/28 04:10:48;;;;;;;10.85;7.47;;;;;;;24.14;100.00;96195.88;5019744;28;20547;-51
2022/08/28 04:13:19;;;;;;;9.70;7.32;;;;;;;24.08;100.00;96188.72;5018073;28;20088;-50
2022/08/28 04:15:54;;;;;;;;;;;;;;;24.43;100.00;96196.78;5027079;28;20081;-47
2022/08/28 04:18:23;;;;;;;10.27;7.03;;;;;;;24.33;100.00;96197.38;5029353;28;20379;-51
2022/08/28 04:20:58;;;;;;;9.82;7.22;;;;;;;24.41;100.00;96195.41;5026978;28;20468;-52
2022/08/28 04:23:28;;;;;;;12.23;7.85;;;;;;;23.95;100.00;96200.59;5028103;28;20092;-54
2022/08/28 04:25:56;;;;;;;12.00;8.15;;;;;;;23.88;100.00;96199.88;5028456;28;20088;-50
2022/08/28 04:28:25;;;;;;;11.05;8.45;;;;;;;23.77;100.00;96208.78;5021036;28;20089;-53
2022/08/28 04:30:54;;;;;;;12.05;8.90;;;;;;;23.88;100.00;96197.19;5019762;28;20074;-50
2022/08/28 04:33:24;;;;;;;13.35;8.80;;;;;;;24.42;100.00;96197.03;5018343;28;20536;-49
2022/08/28 04:35:52;;;;;;;16.55;8.70;;;;;;;24.50;100.00;96194.78;5022800;28;20053;-50
2022/08/28 04:38:21;;;;;;;14.10;9.27;;;;;;;24.66;100.00;96190.50;5019215;28;20053;-50
2022/08/28 04:40:51;;;;;;;12.75;9.75;;;;;;;24.25;100.00;96200.41;5022983;28;20073;-47
2022/08/28 04:43:20;;;;;;;15.18;9.52;;;;;;;24.37;100.00;96201.22;5027112;28;20065;-50
2022/08/28 04:45:48;;;;;;;14.25;10.02;;;;;;;24.17;100.00;96208.88;5020492;28;20515;-47
2022/08/28 04:48:16;;;;;;;14.43;10.30;;;;;;;24.07;100.00;96195.19;5026417;28;20103;-49
2022/08/28 04:50:47;;;;;;;14.40;10.05;;;;;;;24.09;100.00;96199.28;5021440;28;20076;-52
2022/08/28 04:53:17;;;;;;;15.18;10.25;;;;;;;24.43;100.00;96201.34;5025934;28;20091;-56
2022/08/28 04:55:47;;;;;;;15.50;10.23;;;;;;;24.21;100.00;96204.66;5024303;28;20566;-51
2022/08/28 04:58:23;;;;;;;16.13;10.63;;;;;;;24.18;100.00;96205.13;5027256;28;20105;-57
2022/08/28 05:00:52;;;;;;;15.10;10.57;;;;;;;24.52;100.00;96208.81;5026445;28;20073;-51
2022/08/28 05:03:21;;;;;;;15.05;11.20;;;;;;;24.55;100.00;96202.16;5019200;28;20084;-49
2022/08/28 05:05:51;;;;;;;18.98;11.25;;;;;;;24.63;100.00;96207.16;5025128;28;20073;-51
2022/08/28 05:08:21;;;;;;;16.83;10.75;;;;;;;24.67;100.00;96210.19;5028656;28;20084;-48
2022/08/28 05:10:50;;;;;;;15.00;10.98;;;;;;;24.63;100.00;96207.16;5023852;28;20085;-49
2022/08/28 05:13:19;;;;;;;14.13;10.27;;;;;;;24.13;100.00;96221.19;5028452;28;20104;-51
2022/08/28 05:15:50;;;;;;;15.97;10.40;;;;;;;24.50;100.00;96212.81;5028449;28;20078;-46
2022/08/28 05:18:22;;;;;;;13.63;9.98;;;;;;;24.39;100.00;96223.34;5029244;28;20500;-50
2022/08/28 05:20:51;;;;;;;16.77;11.00;;;;;;;24.48;100.00;96228.41;5027218;28;20085;-52
2022/08/28 05:23:19;;;;;;;13.68;10.60;;;;;;;24.28;100.00;96226.09;5028307;28;20092;-52
2022/08/28 05:25:52;;;;;;;19.83;12.65;;;;;;;23.95;100.00;96230.22;5028615;28;20092;-50
2022/08/28 05:28:23;;;;;;;17.65;12.43;;;;;;;24.31;100.00;96231.81;5028610;28;20100;-48
2022/08/28 05:30:52;;;;;;;;;;;;;;;24.15;100.00;96230.66;5028800;28;20085;-53
2022/08/28 05:33:21;;;;;;;15.38;12.55;;;;;;;24.44;100.00;96229.97;5021803;28;19964;-49
2022/08/28 05:35:49;;;;;;;17.70;12.88;;;;;;;24.69;100.00;96230.47;5028047;28;20543;-50
2022/08/28 05:38:18;;;;;;;17.23;12.15;;;;;;;24.82;100.00;96229.38;5028695;28;20085;-50
2022/08/28 05:40:47;;;;;;;19.85;13.23;;;;;;;24.84;100.00;96236.19;5025895;28;20074;-52
2022/08/28 05:43:17;;;;;;;17.42;12.23;;;;;;;24.77;100.00;96235.47;5030336;28;20124;-52
2022/08/28 05:45:45;;;;;;;17.30;13.07;;;;;;;24.70;100.00;96234.78;5032463;28;20077;-49
2022/08/28 05:48:15;;;;;;;17.95;12.38;;;;;;;25.07;100.00;96240.63;5025690;28;20627;-46
2022/08/28 05:50:44;;;;;;;17.38;12.93;;;;;;;25.19;100.00;96237.09;5031995;28;20089;-49
2022/08/28 05:53:16;;;;;;;18.73;13.40;;;;;;;25.28;100.00;96225.66;5032398;28;20088;-50
2022/08/28 05:55:45;;;;;;;18.83;13.32;;;;;;;25.29;100.00;96230.00;5031824;28;20085;-51
2022/08/28 05:58:28;;;;;;;22.02;13.77;;;;;;;25.45;100.00;96232.97;5032203;28;20081;-52
2022/08/28 06:01:07;;;;;;;21.50;14.38;;;;;;;25.63;100.00;96232.72;5030040;28;20077;-49
2022/08/28 06:03:37;;;;;;;20.70;14.65;;;;;;;25.53;100.00;96238.78;5026240;28;20115;-48
2022/08/28 06:06:06;;;;;;;20.52;13.30;;;;;;;25.30;100.00;96245.13;5031947;28;20087;-50
2022/08/28 06:08:35;;;;;;;18.05;13.77;;;;;;;25.26;100.00;96241.28;5031857;28;20092;-51
2022/08/28 06:11:04;;;;;;;20.58;13.93;;;;;;;25.16;100.00;96241.09;5029866;28;20203;-47
2022/08/28 06:13:34;;;;;;;22.20;14.73;;;;;;;25.48;100.00;96237.88;5025238;28;20081;-52
2022/08/28 06:16:04;;;;;;;19.08;14.00;;;;;;;25.31;100.00;96229.75;5027899;28;20077;-52
2022/08/28 06:18:36;;;;;;;19.27;13.80;;;;;;;25.44;100.00;96242.94;5031710;28;20069;-47
2022/08/28 06:21:05;;;;;;;19.30;13.70;;;;;;;25.43;100.00;96246.72;5031504;28;20100;-51
2022/08/28 06:23:33;;;;;;;18.27;14.45;;;;;;;25.16;100.00;96249.22;5031525;28;20195;-48
2022/08/28 06:26:02;;;;;;;17.33;12.77;;;;;;;25.36;100.00;96243.31;5031744;28;20077;-49
2022/08/28 06:28:31;;;;;;;19.90;13.55;;;;;;;25.60;100.00;96245.88;5031352;28;20085;-49
2022/08/28 06:31:02;;;;;;;17.25;13.30;;;;;;;25.23;100.00;96246.34;5027916;28;20088;-52
2022/08/28 06:33:52;;;;;;;17.20;12.73;;;;;;;25.34;100.00;96243.59;5031029;28;20088;-53
2022/08/28 06:36:21;;;;;;;;;;;;;;;25.52;100.00;96247.94;5030257;28;20523;-51
2022/08/28 06:38:49;;;;;;;17.50;13.55;;;;;;;25.60;100.00;96251.28;5020668;28;19960;-49
2022/08/28 06:41:18;;;;;;;18.95;13.77;;;;;;;25.52;100.00;96250.63;5029810;28;20085;-48
2022/08/28 06:43:46;;;;;;;20.65;14.60;;;;;;;25.75;100.00;96252.38;5029153;28;20088;-50
2022/08/28 06:46:15;;;;;;;21.42;13.90;;;;;;;25.54;100.00;96258.50;5030114;28;20096;-47
2022/08/28 06:48:44;;;;;;;19.92;13.05;;;;;;;25.60;100.00;96254.00;5031694;28;20471;-50
2022/08/28 06:51:14;;;;;;;20.40;14.10;;;;;;;25.51;100.00;96253.59;5030996;28;20085;-48
2022/08/28 06:53:44;;;;;;;19.20;14.02;;;;;;;25.51;100.00;96259.00;5030918;28;20088;-51
2022/08/28 06:56:14;;;;;;;21.10;14.30;;;;;;;25.27;100.00;96261.81;5030761;28;20071;-51
2022/08/28 06:58:55;;;;;;;20.05;14.02;;;;;;;25.23;100.00;96265.25;5029121;28;20087;-48
2022/08/28 07:01:27;;;;;;;22.10;15.38;;;;;;;25.26;100.00;96262.06;5030651;28;20071;-47
2022/08/28 07:03:58;;;;;;;19.42;13.27;;;;;;;25.03;100.00;96269.16;5031189;28;20085;-51
2022/08/28 07:06:31;;;;;;;22.23;14.50;;;;;;;25.45;100.00;96278.84;5030851;28;20085;-47
2022/08/28 07:08:59;;;;;;;18.95;14.27;;;;;;;25.44;100.00;96282.63;5030968;28;20563;-50
2022/08/28 07:11:30;;;;;;;19.67;14.80;;;;;;;25.46;100.00;96281.31;5029819;28;20084;-50
2022/08/28 07:13:59;;;;;;;20.52;14.35;;;;;;;25.62;100.00;96281.59;5029950;28;20436;-51
2022/08/28 07:16:29;;;;;;;19.73;13.85;;;;;;;25.60;100.00;96281.81;5031325;28;20085;-47
2022/08/28 07:18:58;;;;;;;18.02;13.18;;;;;;;25.75;100.00;96276.69;5030953;28;20081;-50
2022/08/28 07:21:28;;;;;;;19.92;13.85;;;;;;;25.66;100.00;96275.44;5030277;28;20092;-48
2022/08/28 07:23:56;;;;;;;18.05;13.20;;;;;;;26.07;100.00;96283.41;5030339;28;20089;-49
2022/08/28 07:26:26;;;;;;;17.88;13.77;;;;;;;26.35;100.00;96277.88;5030675;28;20073;-52
2022/08/28 07:28:55;;;;;;;17.92;13.45;;;;;;;26.28;100.00;96275.34;5030672;28;20089;-51
2022/08/28 07:31:39;;;;;;;17.45;12.80;;;;;;;26.00;100.00;96287.09;5029312;28;20081;-49
2022/08/28 07:34:09;;;;;;;18.88;12.90;;;;;;;26.39;100.00;96275.50;5015139;28;20073;-48
2022/08/28 07:36:39;;;;;;;18.55;11.88;;;;;;;25.73;100.00;96281.50;5026951;28;20097;-50
2022/08/28 07:39:08;;;;;;;13.88;12.05;;;;;;;25.83;100.00;96294.38;5030087;28;20077;-49
2022/08/28 07:41:39;;;;;;;15.73;11.20;;;;;;;25.15;100.00;96289.91;5025214;28;20077;-49
2022/08/28 07:46:58;;;;;;;16.35;12.75;;;;;;;25.73;100.00;96292.31;5020365;28;20546;-47
2022/08/28 07:49:26;;;;;;;15.38;12.25;;;;;;;25.78;100.00;96287.00;5029980;28;20767;-47
2022/08/28 07:51:56;;;;;;;17.08;12.70;;;;;;;25.94;100.00;96292.66;5029181;28;20085;-54
2022/08/28 07:54:24;;;;;;;16.23;12.10;;;;;;;26.04;100.00;96293.66;5028491;28;20077;-54
2022/08/28 07:56:53;;;;;;;18.30;13.00;;;;;;;26.12;100.00;96300.53;5029673;28;20138;-53
2022/08/28 07:59:21;;;;;;;17.15;11.75;;;;;;;26.12;100.00;96295.13;5029510;28;20084;-48
2022/08/28 08:01:51;;;;;;;18.02;11.85;;;;;;;26.23;100.00;96304.22;5028766;28;20160;-53
2022/08/28 08:04:21;;;;;;;16.33;11.90;;;;;;;26.35;100.00;96299.50;5029791;28;20073;-51
2022/08/28 08:06:51;;;;;;;16.10;11.98;;;;;;;26.28;100.00;96302.38;5028952;28;20085;-52
2022/08/28 08:09:26;;;;;;;16.60;11.20;;;;;;;26.59;100.00;96292.03;5022980;28;20561;-47
2022/08/28 08:11:56;;;;;;;16.20;11.07;;;;;;;26.70;100.00;96307.34;5029406;28;20594;-52
2022/08/28 08:14:25;;;;;;;15.43;10.93;;;;;;;26.42;100.00;96307.44;5030049;28;20085;-55
2022/08/28 08:16:53;;;;;;;15.65;11.13;;;;;;;26.40;100.00;96301.50;5029159;28;20111;-49
2022/08/28 08:19:21;;;;;;;15.10;12.05;;;;;;;26.57;100.00;96302.28;5029511;28;20547;-50
2022/08/28 08:21:51;;;;;;;14.57;11.93;;;;;;;26.82;100.00;96314.53;5029463;28;20089;-48
2022/08/28 08:24:24;;;;;;;16.70;12.10;;;;;;;27.03;100.00;96316.41;5026625;28;20085;-46
2022/08/28 08:26:56;;;;;;;17.15;12.27;;;;;;;26.72;100.00;96316.00;5027812;28;20527;-49
2022/08/28 08:29:30;;;;;;;15.80;11.35;;;;;;;26.77;100.00;96314.44;5027031;28;20077;-47
2022/08/28 08:32:03;;;;;;;16.23;13.13;;;;;;;27.31;100.00;96311.88;5025403;28;20081;-50
2022/08/28 08:34:35;;;;;;;16.50;12.25;;;;;;;26.56;100.00;96324.97;5028737;28;20428;-50
2022/08/28 08:37:04;;;;;;;14.77;11.98;;;;;;;27.08;100.00;96313.78;5026634;28;20072;-53
2022/08/28 08:39:33;;;;;;;14.43;11.60;;;;;;;27.47;100.00;96318.28;5029307;28;20069;-49
2022/08/28 08:42:05;;;;;;;17.85;12.35;;;;;;;27.45;100.00;96313.91;5028472;28;20084;-50
2022/08/28 08:44:36;;;;;;;15.93;11.35;;;;;;;27.26;100.00;96319.94;5029244;28;20092;-51
2022/08/28 08:47:11;;;;;;;18.08;12.45;;;;;;;27.15;100.00;96325.25;5027877;28;20081;-54
2022/08/28 08:49:49;;;;;;;13.52;12.05;;;;;;;27.02;100.00;96328.31;5027996;28;20096;-47
2022/08/28 08:52:28;;;;;;;20.55;12.23;;;;;;;26.94;100.00;96328.72;5027180;28;20469;-51
2022/08/28 08:55:06;;;;;;;16.33;12.30;;;;;;;27.01;100.00;96328.53;5028184;28;20084;-51
2022/08/28 08:57:37;;;;;;;15.18;11.75;;;;;;;26.81;100.00;96329.94;5029327;28;20080;-50
2022/08/28 09:00:08;;;;;;;15.73;12.32;;;;;;;27.14;100.00;96333.59;5028402;28;20547;-52
2022/08/28 09:02:47;;;;;;;16.35;12.70;;;;;;;26.93;100.00;96329.81;5022895;28;20092;-51
2022/08/28 09:05:18;;;;;;;14.73;12.55;;;;;;;27.38;100.00;96340.38;5028107;28;20081;-49
2022/08/28 09:07:51;;;;;;;16.27;12.52;;;;;;;27.29;100.00;96339.22;5029039;28;20578;-54
2022/08/28 09:10:20;;;;;;;14.40;12.20;;;;;;;27.25;100.00;96339.94;5026695;28;20093;-47
2022/08/28 09:12:55;;;;;;;15.57;12.55;;;;;;;27.34;100.00;96349.28;5029101;28;20077;-47
2022/08/28 09:15:27;;;;;;;15.40;12.40;;;;;;;26.99;100.00;96345.03;5033005;28;20084;-53
2022/08/28 09:18:03;;;;;;;14.15;12.55;;;;;;;27.37;100.00;96348.78;5033028;28;20550;-47
2022/08/28 09:20:32;;;;;;;14.95;12.75;;;;;;;27.48;100.00;96341.56;5026006;28;20472;-54
2022/08/28 09:23:00;;;;;;;13.70;11.77;;;;;;;27.63;100.00;96344.41;5032893;28;20057;-47
2022/08/28 09:25:50;;;;;;;15.70;12.47;;;;;;;27.63;100.00;96350.69;5025898;28;20894;-49
2022/08/28 09:28:22;;;;;;;14.80;11.68;;;;;;;27.31;100.00;96345.19;5032621;28;20077;-51
2022/08/28 09:31:02;;;;;;;13.98;12.23;;;;;;;27.41;100.00;96348.00;5030157;28;20069;-50
2022/08/28 09:33:37;;;;;;;16.70;12.45;;;;;;;27.37;100.00;96354.19;5030089;28;20069;-49
2022/08/28 09:36:26;;;;;;;15.85;11.98;;;;;;;27.32;100.00;96349.50;5032673;28;20554;-50
2022/08/28 09:39:12;;;;;;;15.38;12.05;;;;;;;27.50;100.00;96351.09;5027603;28;20096;-50
2022/08/28 09:44:50;;;;;;;14.90;11.80;;;;;;;27.57;100.00;96351.69;5032202;28;20155;-54
2022/08/28 09:47:42;;;;;;;14.75;12.25;;;;;;;27.35;100.00;96359.84;5027894;28;20104;-50
2022/08/28 09:50:32;;;;;;;16.48;12.93;;;;;;;27.25;100.00;96361.63;5032040;28;20073;-49
2022/08/28 09:53:15;;;;;;;17.23;12.82;;;;;;;27.30;100.00;96358.97;5027860;28;20139;-47
2022/08/28 09:55:51;;;;;;;16.15;12.10;;;;;;;27.18;100.00;96359.09;5031351;28;20528;-49
2022/08/28 09:58:20;;;;;;;14.23;11.90;;;;;;;27.35;100.00;96359.03;5032020;28;20084;-52
2022/08/28 10:00:55;;;;;;;15.85;11.90;;;;;;;27.63;100.00;96361.53;5029212;28;20077;-47
2022/08/28 10:03:27;;;;;;;12.93;11.38;;;;;;;27.79;100.00;96358.97;5025559;28;20080;-55
2022/08/28 10:06:03;;;;;;;15.32;12.20;;;;;;;27.97;100.00;96357.78;5026259;28;20080;-48
2022/08/28 10:08:47;;;;;;;14.88;11.93;;;;;;;28.02;100.00;96355.94;5031913;28;20687;-52
2022/08/28 10:11:20;;;;;;;13.05;11.10;;;;;;;28.02;100.00;96360.56;5031032;28;20081;-51
2022/08/28 10:13:55;;;;;;;15.15;11.02;;;;;;;28.36;100.00;96361.91;5030771;28;20084;-50
2022/08/28 10:16:31;;;;;;;14.45;10.90;;;;;;;28.05;100.00;96362.75;5029355;28;20065;-49
2022/08/28 10:19:05;;;;;;;14.82;11.05;;;;;;;28.27;100.00;96363.47;5031876;28;20095;-53
2022/08/28 10:21:37;;;;;;;15.20;11.15;;;;;;;28.12;100.00;96366.88;5030265;28;20092;-47
2022/08/28 10:24:18;;;;;;;14.00;12.43;;;;;;;28.39;100.00;96364.16;5022014;28;20081;-54
2022/08/28 10:26:59;;;;;;;13.95;11.80;;;;;;;28.39;100.00;96366.84;5031513;28;20073;-49
2022/08/28 10:29:35;;;;;;;15.93;12.77;;;;;;;28.10;100.00;96371.72;5027950;28;20092;-50
2022/08/28 10:32:16;;;;;;;15.02;12.57;;;;;;;28.08;100.00;96367.63;5031088;28;20077;-51
2022/08/28 10:34:53;;;;;;;14.55;12.45;;;;;;;28.22;100.00;96365.31;5026482;28;20092;-48
2022/08/28 10:37:31;;;;;;;15.05;13.45;;;;;;;28.43;100.00;96363.63;5031637;28;20088;-50
2022/08/28 10:40:02;;;;;;;14.43;12.73;;;;;;;28.03;100.00;96367.59;5030634;28;20539;-54
2022/08/28 10:42:35;;;;;;;17.67;14.02;;;;;;;27.77;100.00;96370.09;5031063;28;20080;-53
2022/08/28 10:45:08;;;;;;;16.25;13.93;;;;;;;27.81;100.00;96370.41;5030654;28;20112;-49
2022/08/28 10:47:41;;;;;;;17.38;14.48;;;;;;;27.84;100.00;96369.84;5031028;28;20465;-49
2022/08/28 10:50:17;;;;;;;17.35;14.55;;;;;;;27.82;100.00;96372.84;5024525;28;20084;-55
2022/08/28 10:52:48;;;;;;;15.35;13.20;;;;;;;28.14;100.00;96372.03;5030880;28;20077;-48
2022/08/28 10:55:19;;;;;;;16.33;14.63;;;;;;;28.30;100.00;96373.78;5031106;28;20042;-53
2022/08/28 10:57:50;;;;;;;18.52;15.27;;;;;;;27.78;100.00;96379.03;5030592;28;20081;-49
2022/08/28 11:00:20;;;;;;;20.77;14.85;;;;;;;27.92;100.00;96378.34;5029844;28;20076;-50
2022/08/28 11:02:52;;;;;;;16.42;14.68;;;;;;;27.79;100.00;96384.19;5030607;28;20089;-52
2022/08/28 11:05:22;;;;;;;18.40;15.43;;;;;;;27.92;100.00;96385.66;5031407;28;20453;-50
2022/08/28 11:07:53;;;;;;;17.65;15.55;;;;;;;27.97;100.00;96385.69;5030714;28;20084;-48
2022/08/28 11:10:38;;;;;;;16.83;14.82;;;;;;;27.67;100.00;96383.50;5030074;28;20092;-54
2022/08/28 11:13:08;;;;;;;17.42;14.20;;;;;;;28.01;100.00;96384.13;5030194;28;20686;-50
2022/08/28 11:15:43;;;;;;;18.98;14.98;;;;;;;28.27;100.00;96390.59;5029500;28;20088;-52
2022/08/28 11:18:44;;;;;;;17.60;15.13;;;;;;;27.72;100.00;96386.25;5021710;28;20070;-54
2022/08/28 11:21:18;;;;;;;17.52;14.90;;;;;;;27.77;100.00;96386.34;5026481;28;20077;-55
2022/08/28 11:23:50;;;;;;;15.40;13.80;;;;;;;27.57;100.00;96386.91;5028157;28;20089;-50
2022/08/28 11:26:29;;;;;;;21.52;14.88;;;;;;;27.65;100.00;96386.44;5022299;28;20077;-52
2022/08/28 11:29:01;;;;;;;16.70;14.38;;;;;;;27.85;100.00;96379.66;5026360;28;20073;-52
2022/08/28 11:31:35;;;;;;;15.85;14.13;;;;;;;27.21;100.00;96377.53;5029663;28;20077;-52
2022/08/28 11:34:05;;;;;;;16.30;14.27;;;;;;;27.31;100.00;96382.28;5030539;28;20096;-54
2022/08/28 11:36:52;;;;;;;;;;;;;;;28.00;100.00;96379.78;5029738;28;20558;-52
2022/08/28 11:39:21;;;;;;;16.02;13.52;;;;;;;27.98;100.00;96384.66;5026867;28;19968;-53
2022/08/28 11:42:32;;;;;;;15.90;13.30;;;;;;;28.00;100.00;96384.38;5029725;28;20085;-53
2022/08/28 11:45:00;;;;;;;16.60;13.27;;;;;;;28.06;100.00;96373.31;5029263;28;20088;-50